createdAt,value
2018-04-27T00:00:17.081Z,1.80
2018-04-27T00:00:50.349Z,1.80
2018-04-27T00:01:23.612Z,1.98
2018-04-27T00:01:57.641Z,1.85
2018-04-27T00:02:30.904Z,1.75
2018-04-27T00:03:04.188Z,1.95
2018-04-27T00:03:37.543Z,1.90
2018-04-27T00:04:10.799Z,1.90
2018-04-27T00:04:44.056Z,1.87
2018-04-27T00:05:18.117Z,1.90
2018-04-27T00:05:51.390Z,2.10
2018-04-27T00:06:25.412Z,1.60
2018-04-27T00:06:58.671Z,1.77
2018-04-27T00:07:31.924Z,2.25
2018-04-27T00:08:05.234Z,1.85
2018-04-27T00:08:38.500Z,2.00
2018-04-27T00:09:12.532Z,1.80
2018-04-27T00:09:45.808Z,1.87
2018-04-27T00:10:19.071Z,2.40
2018-04-27T00:10:52.352Z,2.00
2018-04-27T00:11:25.613Z,2.10
2018-04-27T00:11:59.656Z,1.50
2018-04-27T00:12:32.920Z,1.98
2018-04-27T00:13:06.184Z,1.83
2018-04-27T00:13:40.228Z,2.33
2018-04-27T00:14:13.488Z,1.70
2018-04-27T00:14:46.756Z,1.85
2018-04-27T00:15:20.018Z,1.85
2018-04-27T00:15:54.061Z,1.80
2018-04-27T00:16:27.321Z,1.80
2018-04-27T00:17:00.585Z,1.67
2018-04-27T00:17:33.860Z,2.08
2018-04-27T00:18:07.924Z,1.90
2018-04-27T00:18:41.216Z,1.40
2018-04-27T00:19:14.456Z,2.65
2018-04-27T00:19:47.752Z,2.35
2018-04-27T00:20:20.996Z,1.80
2018-04-27T00:20:54.272Z,1.90
2018-04-27T00:21:27.552Z,1.90
2018-04-27T00:22:00.824Z,2.10
2018-04-27T00:22:34.091Z,1.62
2018-04-27T00:23:08.142Z,1.87
2018-04-27T00:23:41.412Z,1.90
2018-04-27T00:24:15.504Z,1.60
2018-04-27T00:24:48.820Z,2.10
2018-04-27T00:25:22.095Z,1.45
2018-04-27T00:25:55.344Z,2.00
2018-04-27T00:26:28.622Z,1.80
2018-04-27T00:27:01.885Z,2.03
2018-04-27T00:27:35.152Z,1.80
2018-04-27T00:28:09.203Z,1.80
2018-04-27T00:28:42.469Z,1.70
2018-04-27T00:29:15.731Z,1.73
2018-04-27T00:29:48.999Z,1.87
2018-04-27T00:30:22.277Z,1.60
2018-04-27T00:30:56.304Z,1.62
2018-04-27T00:31:29.551Z,1.85
2018-04-27T00:32:02.830Z,1.65
2018-04-27T00:32:36.096Z,1.80
2018-04-27T00:33:10.156Z,1.95
2018-04-27T00:33:43.416Z,1.52
2018-04-27T00:34:16.765Z,2.33
2018-04-27T00:34:49.941Z,1.67
2018-04-27T00:35:23.976Z,1.60
2018-04-27T00:35:57.244Z,1.73
2018-04-27T00:36:30.499Z,2.20
2018-04-27T00:37:04.534Z,1.67
2018-04-27T00:37:37.797Z,1.65
2018-04-27T00:38:11.068Z,1.70
2018-04-27T00:38:44.341Z,1.73
2018-04-27T00:39:18.372Z,1.50
2018-04-27T00:39:52.388Z,1.70
2018-04-27T00:40:26.421Z,1.65
2018-04-27T00:41:00.451Z,1.90
2018-04-27T00:41:33.708Z,2.25
2018-04-27T00:42:07.037Z,2.15
2018-04-27T00:42:40.237Z,1.62
2018-04-27T00:43:13.492Z,1.75
2018-04-27T00:43:47.103Z,1.92
2018-04-27T00:44:20.355Z,1.95
2018-04-27T00:44:55.252Z,1.90
2018-04-27T00:45:28.526Z,2.25
2018-04-27T00:46:01.776Z,1.80
2018-04-27T00:46:35.076Z,1.90
2018-04-27T00:47:08.354Z,2.17
2018-04-27T00:47:42.383Z,2.12
2018-04-27T00:48:15.636Z,2.00
2018-04-27T00:48:49.680Z,2.12
2018-04-27T00:49:22.958Z,1.60
2018-04-27T00:49:56.211Z,1.80
2018-04-27T00:50:30.237Z,2.00
2018-04-27T00:51:03.520Z,1.80
2018-04-27T00:51:36.781Z,1.50
2018-04-27T00:52:10.048Z,2.33
2018-04-27T00:52:55.356Z,1.98
2018-04-27T00:53:28.614Z,1.75
2018-04-27T00:54:01.882Z,1.70
2018-04-27T00:54:35.152Z,2.08
2018-04-27T00:55:08.413Z,2.08
2018-04-27T00:55:41.676Z,1.92
2018-04-27T00:56:15.701Z,1.65
2018-04-27T00:56:48.964Z,1.98
2018-04-27T00:57:23.001Z,1.58
2018-04-27T00:57:56.269Z,1.50
2018-04-27T00:58:29.528Z,2.10
2018-04-27T00:59:02.816Z,1.73
2018-04-27T00:59:36.083Z,1.70
2018-04-27T01:00:10.113Z,1.80
2018-04-27T01:00:43.385Z,1.60
2018-04-27T01:01:16.648Z,2.03
2018-04-27T01:01:49.929Z,1.42
2018-04-27T01:02:23.187Z,1.73
2018-04-27T01:02:57.204Z,2.00
2018-04-27T01:03:30.464Z,1.90
2018-04-27T01:04:04.514Z,1.92
2018-04-27T01:04:37.805Z,1.58
2018-04-27T01:05:11.021Z,1.60
2018-04-27T01:05:45.183Z,1.90
2018-04-27T01:06:18.423Z,1.80
2018-04-27T01:06:51.689Z,1.60
2018-04-27T01:07:24.973Z,1.60
2018-04-27T01:07:58.220Z,1.80
2018-04-27T01:08:31.477Z,1.65
2018-04-27T01:09:04.766Z,1.85
2018-04-27T01:09:38.028Z,1.73
2018-04-27T01:10:11.288Z,1.92
2018-04-27T01:10:44.545Z,1.80
2018-04-27T01:11:18.581Z,1.90
2018-04-27T01:11:51.844Z,1.80
2018-04-27T01:12:25.103Z,1.73
2018-04-27T01:12:58.365Z,1.98
2018-04-27T01:13:32.403Z,1.58
2018-04-27T01:14:06.453Z,1.65
2018-04-27T01:14:39.731Z,1.75
2018-04-27T01:15:13.001Z,1.52
2018-04-27T01:15:46.264Z,1.80
2018-04-27T01:16:19.520Z,1.80
2018-04-27T01:16:53.048Z,1.50
2018-04-27T01:17:26.315Z,1.20
2018-04-27T01:17:59.576Z,1.42
2018-04-27T01:18:32.944Z,1.98
2018-04-27T01:19:06.214Z,1.52
2018-04-27T01:19:40.244Z,1.73
2018-04-27T01:20:13.525Z,1.40
2018-04-27T01:20:46.784Z,1.50
2018-04-27T01:21:20.045Z,1.87
2018-04-27T01:21:53.315Z,1.40
2018-04-27T01:22:27.370Z,1.70
2018-04-27T01:23:00.637Z,1.87
2018-04-27T01:23:33.903Z,1.48
2018-04-27T01:24:07.188Z,1.48
2018-04-27T01:24:40.443Z,1.55
2018-04-27T01:25:14.486Z,1.55
2018-04-27T01:25:47.744Z,1.65
2018-04-27T01:26:21.007Z,1.60
2018-04-27T01:26:55.043Z,1.67
2018-04-27T01:27:28.316Z,1.30
2018-04-27T01:28:01.566Z,1.30
2018-04-27T01:28:35.591Z,1.52
2018-04-27T01:29:08.882Z,1.95
2018-04-27T01:29:42.152Z,2.05
2018-04-27T01:30:15.420Z,1.60
2018-04-27T01:30:48.679Z,2.22
2018-04-27T01:31:22.717Z,1.90
2018-04-27T01:31:55.981Z,1.62
2018-04-27T01:32:29.256Z,1.52
2018-04-27T01:33:02.512Z,1.70
2018-04-27T01:33:35.779Z,1.58
2018-04-27T01:34:09.066Z,1.42
2018-04-27T01:34:42.323Z,2.10
2018-04-27T01:35:15.582Z,1.60
2018-04-27T01:35:48.913Z,1.62
2018-04-27T01:36:22.940Z,1.77
2018-04-27T01:36:56.202Z,2.35
2018-04-27T01:37:30.224Z,1.60
2018-04-27T01:38:03.508Z,2.10
2018-04-27T01:38:36.766Z,1.52
2018-04-27T01:39:10.056Z,1.60
2018-04-27T01:39:43.321Z,2.12
2018-04-27T01:40:16.596Z,1.70
2018-04-27T01:40:50.622Z,1.83
2018-04-27T01:41:23.886Z,1.30
2018-04-27T01:41:57.136Z,1.77
2018-04-27T01:42:31.161Z,1.60
2018-04-27T01:43:04.429Z,1.90
2018-04-27T01:43:38.464Z,1.27
2018-04-27T01:44:11.751Z,1.90
2018-04-27T01:44:45.022Z,1.62
2018-04-27T01:45:18.286Z,1.45
2018-04-27T01:45:51.540Z,1.50
2018-04-27T01:46:25.573Z,1.85
2018-04-27T01:46:58.842Z,1.92
2018-04-27T01:47:32.105Z,1.65
2018-04-27T01:48:05.356Z,1.87
2018-04-27T01:48:38.628Z,1.80
2018-04-27T01:49:11.965Z,1.98
2018-04-27T01:49:45.224Z,1.48
2018-04-27T01:50:18.489Z,1.77
2018-04-27T01:50:51.767Z,1.55
2018-04-27T01:51:25.033Z,1.42
2018-04-27T01:51:58.295Z,1.85
2018-04-27T01:52:31.562Z,1.62
2018-04-27T01:53:04.816Z,1.70
2018-04-27T01:53:38.076Z,1.50
2018-04-27T01:54:12.112Z,1.40
2018-04-27T01:54:45.389Z,1.67
2018-04-27T01:55:19.425Z,2.05
2018-04-27T01:55:52.681Z,1.58
2018-04-27T01:56:25.973Z,1.85
2018-04-27T01:56:59.311Z,1.50
2018-04-27T01:57:32.563Z,1.80
2018-04-27T01:58:05.836Z,1.50
2018-04-27T01:58:39.105Z,1.70
2018-04-27T01:59:12.381Z,1.70
2018-04-27T01:59:45.662Z,1.98
2018-04-27T02:00:18.918Z,1.80
2018-04-27T02:00:52.177Z,1.73
2018-04-27T02:01:25.432Z,1.48
2018-04-27T02:01:58.729Z,1.75
2018-04-27T02:02:32.747Z,1.80
2018-04-27T02:03:06.013Z,1.83
2018-04-27T02:03:39.268Z,1.42
2018-04-27T02:04:13.301Z,1.95
2018-04-27T02:04:46.589Z,1.65
2018-04-27T02:05:19.840Z,1.80
2018-04-27T02:05:53.113Z,2.00
2018-04-27T02:06:27.168Z,1.73
2018-04-27T02:07:00.427Z,1.85
2018-04-27T02:07:33.697Z,2.33
2018-04-27T02:08:07.896Z,1.73
2018-04-27T02:08:41.160Z,1.73
2018-04-27T02:09:14.429Z,1.85
2018-04-27T02:09:47.695Z,1.70
2018-04-27T02:10:20.949Z,1.60
2018-04-27T02:10:54.233Z,1.52
2018-04-27T02:11:27.492Z,2.03
2018-04-27T02:12:00.750Z,1.48
2018-04-27T02:12:34.017Z,1.70
2018-04-27T02:13:07.311Z,1.75
2018-04-27T02:13:40.568Z,1.45
2018-04-27T02:14:14.596Z,1.80
2018-04-27T02:14:47.872Z,2.17
2018-04-27T02:15:21.144Z,1.77
2018-04-27T02:15:54.412Z,1.40
2018-04-27T02:16:27.700Z,1.87
2018-04-27T02:17:00.957Z,1.73
2018-04-27T02:17:34.227Z,1.50
2018-04-27T02:18:07.494Z,1.70
2018-04-27T02:18:40.755Z,1.70
2018-04-27T02:19:14.027Z,1.55
2018-04-27T02:19:47.304Z,1.73
2018-04-27T02:20:20.572Z,1.75
2018-04-27T02:20:53.853Z,1.85
2018-04-27T02:21:27.892Z,1.65
2018-04-27T02:22:01.164Z,1.73
2018-04-27T02:22:34.441Z,1.83
2018-04-27T02:23:07.694Z,1.50
2018-04-27T02:23:40.951Z,1.77
2018-04-27T02:24:14.219Z,1.50
2018-04-27T02:24:48.257Z,1.80
2018-04-27T02:25:21.517Z,1.37
2018-04-27T02:25:54.780Z,1.70
2018-04-27T02:26:28.797Z,1.62
2018-04-27T02:27:02.057Z,1.73
2018-04-27T02:27:35.335Z,1.65
2018-04-27T02:28:08.583Z,1.60
2018-04-27T02:28:42.479Z,1.75
2018-04-27T02:29:15.728Z,1.70
2018-04-27T02:29:49.009Z,1.40
2018-04-27T02:30:22.283Z,1.42
2018-04-27T02:30:55.538Z,1.60
2018-04-27T02:31:28.808Z,1.45
2018-04-27T02:32:02.834Z,1.75
2018-04-27T02:32:36.864Z,1.58
2018-04-27T02:33:10.123Z,1.62
2018-04-27T02:33:43.386Z,1.70
2018-04-27T02:34:16.641Z,1.87
2018-04-27T02:34:49.933Z,1.60
2018-04-27T02:35:23.966Z,1.83
2018-04-27T02:35:57.237Z,1.58
2018-04-27T02:36:30.506Z,1.40
2018-04-27T02:37:03.777Z,1.30
2018-04-27T02:37:37.041Z,1.65
2018-04-27T02:38:11.065Z,1.70
2018-04-27T02:38:44.352Z,1.58
2018-04-27T02:39:18.376Z,1.60
2018-04-27T02:39:51.656Z,2.00
2018-04-27T02:40:24.932Z,1.80
2018-04-27T02:40:58.208Z,1.62
2018-04-27T02:41:31.460Z,1.70
2018-04-27T02:42:04.732Z,1.40
2018-04-27T02:42:38.757Z,1.90
2018-04-27T02:43:12.028Z,1.67
2018-04-27T02:43:45.289Z,1.77
2018-04-27T02:44:18.549Z,1.77
2018-04-27T02:44:51.828Z,1.48
2018-04-27T02:45:25.874Z,2.00
2018-04-27T02:45:59.146Z,1.50
2018-04-27T02:46:32.436Z,1.65
2018-04-27T02:47:05.696Z,1.40
2018-04-27T02:47:38.961Z,1.75
2018-04-27T02:48:12.220Z,1.85
2018-04-27T02:48:46.249Z,1.60
2018-04-27T02:49:19.530Z,1.45
2018-04-27T02:49:52.873Z,1.60
2018-04-27T02:50:26.128Z,1.42
2018-04-27T02:50:59.388Z,1.48
2018-04-27T02:51:32.648Z,1.60
2018-04-27T02:52:05.924Z,1.92
2018-04-27T02:52:39.190Z,1.75
2018-04-27T02:53:13.227Z,1.73
2018-04-27T02:53:46.484Z,1.48
2018-04-27T02:54:19.743Z,1.70
2018-04-27T02:54:53.780Z,1.73
2018-04-27T02:55:27.053Z,1.52
2018-04-27T02:56:00.316Z,1.75
2018-04-27T02:56:33.592Z,1.50
2018-04-27T02:57:06.844Z,1.45
2018-04-27T02:57:40.107Z,1.80
2018-04-27T02:58:13.363Z,1.33
2018-04-27T02:58:46.626Z,1.33
2018-04-27T02:59:19.905Z,1.60
2018-04-27T02:59:53.172Z,1.87
2018-04-27T03:00:27.192Z,1.62
2018-04-27T03:01:00.462Z,1.58
2018-04-27T03:01:33.727Z,1.40
2018-04-27T03:02:07.753Z,1.87
2018-04-27T03:02:41.020Z,1.62
2018-04-27T03:03:14.301Z,1.70
2018-04-27T03:03:47.569Z,1.50
2018-04-27T03:04:21.621Z,1.30
2018-04-27T03:04:54.894Z,1.10
2018-04-27T03:05:28.157Z,1.95
2018-04-27T03:06:01.418Z,2.05
2018-04-27T03:06:34.679Z,1.17
2018-04-27T03:07:07.941Z,1.67
2018-04-27T03:07:41.204Z,1.90
2018-04-27T03:08:14.459Z,1.80
2018-04-27T03:08:47.716Z,1.60
2018-04-27T03:09:21.001Z,1.45
2018-04-27T03:09:54.272Z,1.73
2018-04-27T03:10:28.371Z,1.52
2018-04-27T03:11:01.635Z,1.52
2018-04-27T03:11:35.662Z,1.98
2018-04-27T03:12:08.926Z,1.65
2018-04-27T03:12:42.187Z,1.50
2018-04-27T03:13:16.213Z,1.48
2018-04-27T03:13:49.469Z,2.15
2018-04-27T03:14:23.507Z,2.20
2018-04-27T03:14:56.768Z,1.90
2018-04-27T03:15:30.052Z,1.70
2018-04-27T03:16:03.340Z,1.65
2018-04-27T03:16:36.600Z,1.20
2018-04-27T03:17:09.868Z,1.48
2018-04-27T03:17:43.905Z,1.37
2018-04-27T03:18:17.165Z,1.60
2018-04-27T03:18:50.430Z,2.10
2018-04-27T03:19:24.458Z,1.65
2018-04-27T03:19:57.717Z,1.65
2018-04-27T03:20:30.990Z,1.55
2018-04-27T03:21:04.264Z,1.60
2018-04-27T03:21:38.298Z,1.70
2018-04-27T03:22:11.550Z,1.80
2018-04-27T03:22:44.808Z,1.60
2018-04-27T03:23:18.068Z,1.77
2018-04-27T03:23:51.418Z,1.70
2018-04-27T03:24:24.667Z,1.50
2018-04-27T03:24:57.941Z,1.62
2018-04-27T03:25:31.206Z,1.75
2018-04-27T03:26:04.468Z,2.00
2018-04-27T03:26:37.728Z,1.67
2018-04-27T03:27:11.758Z,1.80
2018-04-27T03:27:45.017Z,1.60
2018-04-27T03:28:18.273Z,1.20
2018-04-27T03:28:51.544Z,1.60
2018-04-27T03:29:24.806Z,1.83
2018-04-27T03:29:58.072Z,1.67
2018-04-27T03:30:32.121Z,1.50
2018-04-27T03:31:05.377Z,1.70
2018-04-27T03:31:38.725Z,1.50
2018-04-27T03:32:11.980Z,1.65
2018-04-27T03:32:46.012Z,1.80
2018-04-27T03:33:20.025Z,1.65
2018-04-27T03:33:53.275Z,1.60
2018-04-27T03:34:26.627Z,1.50
2018-04-27T03:34:59.789Z,1.80
2018-04-27T03:35:33.047Z,1.85
2018-04-27T03:36:06.312Z,1.58
2018-04-27T03:36:40.326Z,1.30
2018-04-27T03:37:13.584Z,2.08
2018-04-27T03:37:46.834Z,1.73
2018-04-27T03:38:20.092Z,1.87
2018-04-27T03:38:53.343Z,1.60
2018-04-27T03:39:26.603Z,1.70
2018-04-27T03:40:00.620Z,1.65
2018-04-27T03:40:33.882Z,2.10
2018-04-27T03:41:07.925Z,1.70
2018-04-27T03:41:41.169Z,1.67
2018-04-27T03:42:14.420Z,1.77
2018-04-27T03:42:47.673Z,1.70
2018-04-27T03:43:20.929Z,1.80
2018-04-27T03:43:54.183Z,1.70
2018-04-27T03:44:28.203Z,1.70
2018-04-27T03:45:01.452Z,1.73
2018-04-27T03:45:35.472Z,1.60
2018-04-27T03:46:08.745Z,2.10
2018-04-27T03:46:42.004Z,1.55
2018-04-27T03:47:16.012Z,1.60
2018-04-27T03:47:50.028Z,1.62
2018-04-27T03:48:23.289Z,2.10
2018-04-27T03:48:57.313Z,1.83
2018-04-27T03:49:30.572Z,1.30
2018-04-27T03:50:04.593Z,1.83
2018-04-27T03:50:37.837Z,1.58
2018-04-27T03:51:11.857Z,1.73
2018-04-27T03:51:45.102Z,1.60
2018-04-27T03:52:18.825Z,1.77
2018-04-27T03:52:52.104Z,1.48
2018-04-27T03:53:25.357Z,1.50
2018-04-27T03:53:58.630Z,1.70
2018-04-27T03:54:31.889Z,2.35
2018-04-27T03:55:05.136Z,1.67
2018-04-27T03:55:38.397Z,1.92
2018-04-27T03:56:11.666Z,1.60
2018-04-27T03:56:44.914Z,2.05
2018-04-27T03:57:18.941Z,2.00
2018-04-27T03:57:52.995Z,1.95
2018-04-27T03:58:26.248Z,2.08
2018-04-27T03:58:59.502Z,1.70
2018-04-27T03:59:45.498Z,2.17
2018-04-27T04:00:30.549Z,1.73
2018-04-27T04:01:15.723Z,1.70
2018-04-27T04:02:00.761Z,1.87
2018-04-27T04:02:45.944Z,1.85
2018-04-27T04:03:30.989Z,1.75
2018-04-27T04:04:16.149Z,2.00
2018-04-27T04:05:01.209Z,1.90
2018-04-27T04:05:34.480Z,2.12
2018-04-27T04:06:07.731Z,1.77
2018-04-27T04:06:41.756Z,1.70
2018-04-27T04:07:15.030Z,2.28
2018-04-27T04:07:48.285Z,1.98
2018-04-27T04:08:22.309Z,1.70
2018-04-27T04:08:55.559Z,1.77
2018-04-27T04:09:28.825Z,1.85
2018-04-27T04:10:02.078Z,2.03
2018-04-27T04:10:35.326Z,2.12
2018-04-27T04:11:08.595Z,1.60
2018-04-27T04:11:41.867Z,1.70
2018-04-27T04:12:15.116Z,1.73
2018-04-27T04:12:48.396Z,1.75
2018-04-27T04:13:22.045Z,1.67
2018-04-27T04:13:55.297Z,2.53
2018-04-27T04:14:29.308Z,1.58
2018-04-27T04:15:02.560Z,1.90
2018-04-27T04:15:35.816Z,1.77
2018-04-27T04:16:09.083Z,1.95
2018-04-27T04:16:42.336Z,2.58
2018-04-27T04:17:15.606Z,1.98
2018-04-27T04:17:49.619Z,1.75
2018-04-27T04:18:22.885Z,2.12
2018-04-27T04:18:56.136Z,1.50
2018-04-27T04:19:29.384Z,1.95
2018-04-27T04:20:02.640Z,2.05
2018-04-27T04:20:35.893Z,1.98
2018-04-27T04:21:09.920Z,2.55
2018-04-27T04:21:43.180Z,1.60
2018-04-27T04:22:16.434Z,2.10
2018-04-27T04:22:50.868Z,1.75
2018-04-27T04:23:24.123Z,1.40
2018-04-27T04:23:57.378Z,1.80
2018-04-27T04:24:30.628Z,2.12
2018-04-27T04:25:03.913Z,2.00
2018-04-27T04:25:37.173Z,2.15
2018-04-27T04:26:10.472Z,2.00
2018-04-27T04:26:43.741Z,1.62
2018-04-27T04:27:17.000Z,1.52
2018-04-27T04:27:50.244Z,2.00
2018-04-27T04:28:23.507Z,2.35
2018-04-27T04:28:56.752Z,1.50
2018-04-27T04:29:30.016Z,1.70
2018-04-27T04:30:04.037Z,1.90
2018-04-27T04:30:38.066Z,2.10
2018-04-27T04:31:11.323Z,1.70
2018-04-27T04:31:44.598Z,1.90
2018-04-27T04:32:17.908Z,2.12
2018-04-27T04:32:51.108Z,2.08
2018-04-27T04:33:24.372Z,1.75
2018-04-27T04:33:58.179Z,2.22
2018-04-27T04:34:31.436Z,1.90
2018-04-27T04:35:05.460Z,2.10
2018-04-27T04:35:39.486Z,1.70
2018-04-27T04:36:12.745Z,1.70
2018-04-27T04:36:46.790Z,2.20
2018-04-27T04:37:20.021Z,2.33
2018-04-27T04:37:54.041Z,1.87
2018-04-27T04:38:27.309Z,1.80
2018-04-27T04:39:00.569Z,2.08
2018-04-27T04:39:33.827Z,2.40
2018-04-27T04:40:07.848Z,2.42
2018-04-27T04:40:41.148Z,2.03
2018-04-27T04:41:15.164Z,1.83
2018-04-27T04:41:48.431Z,2.00
2018-04-27T04:42:21.684Z,2.37
2018-04-27T04:42:54.939Z,2.30
2018-04-27T04:43:28.201Z,2.28
2018-04-27T04:44:01.461Z,1.92
2018-04-27T04:44:34.787Z,1.75
2018-04-27T04:45:08.881Z,2.25
2018-04-27T04:45:42.835Z,2.40
2018-04-27T04:46:16.089Z,2.22
2018-04-27T04:46:49.357Z,2.42
2018-04-27T04:47:22.620Z,2.15
2018-04-27T04:47:55.870Z,2.15
2018-04-27T04:48:29.116Z,2.17
2018-04-27T04:49:03.154Z,2.30
2018-04-27T04:49:36.424Z,2.17
2018-04-27T04:50:09.679Z,2.12
2018-04-27T04:50:42.936Z,2.20
2018-04-27T04:51:16.180Z,2.05
2018-04-27T04:51:49.455Z,2.17
2018-04-27T04:52:22.791Z,2.30
2018-04-27T04:52:55.956Z,2.00
2018-04-27T04:53:29.211Z,2.03
2018-04-27T04:54:02.461Z,2.08
2018-04-27T04:54:35.742Z,2.05
2018-04-27T04:55:09.005Z,2.35
2018-04-27T04:55:42.248Z,2.00
2018-04-27T04:56:15.506Z,2.30
2018-04-27T04:56:48.768Z,2.47
2018-04-27T04:57:22.040Z,2.58
2018-04-27T04:57:56.070Z,2.42
2018-04-27T04:58:29.341Z,2.40
2018-04-27T04:59:03.347Z,2.25
2018-04-27T04:59:36.607Z,1.90
2018-04-27T05:00:09.869Z,2.17
2018-04-27T05:00:43.140Z,2.08
2018-04-27T05:01:16.409Z,2.42
2018-04-27T05:01:49.689Z,3.00
2018-04-27T05:02:22.948Z,2.00
2018-04-27T05:02:56.218Z,2.00
2018-04-27T05:03:30.237Z,2.22
2018-04-27T05:04:04.248Z,2.33
2018-04-27T05:04:37.504Z,2.10
2018-04-27T05:05:10.744Z,1.95
2018-04-27T05:05:44.024Z,2.42
2018-04-27T05:06:17.308Z,2.20
2018-04-27T05:06:51.343Z,2.40
2018-04-27T05:07:25.359Z,2.00
2018-04-27T05:07:58.611Z,2.08
2018-04-27T05:08:31.877Z,2.28
2018-04-27T05:09:05.115Z,2.72
2018-04-27T05:09:38.363Z,2.62
2018-04-27T05:10:12.379Z,1.98
2018-04-27T05:10:45.692Z,2.00
2018-04-27T05:11:19.664Z,1.90
2018-04-27T05:11:52.928Z,2.17
2018-04-27T05:12:26.185Z,2.37
2018-04-27T05:12:59.445Z,2.17
2018-04-27T05:13:32.697Z,2.62
2018-04-27T05:14:05.995Z,2.20
2018-04-27T05:14:39.230Z,1.80
2018-04-27T05:15:12.476Z,2.05
2018-04-27T05:15:45.828Z,2.70
2018-04-27T05:16:19.075Z,2.12
2018-04-27T05:16:52.351Z,2.40
2018-04-27T05:17:25.629Z,2.20
2018-04-27T05:18:01.640Z,1.85
2018-04-27T05:19:34.517Z,2.35
2018-04-27T05:20:07.298Z,2.45
2018-04-27T05:20:40.592Z,2.55
2018-04-27T05:21:14.610Z,2.17
2018-04-27T05:21:47.901Z,2.28
2018-04-27T05:22:21.169Z,1.83
2018-04-27T05:22:54.440Z,2.17
2018-04-27T05:23:27.707Z,2.45
2018-04-27T05:24:01.725Z,2.60
2018-04-27T05:24:34.975Z,2.10
2018-04-27T05:25:08.241Z,2.30
2018-04-27T05:25:41.526Z,2.62
2018-04-27T05:26:14.780Z,2.35
2018-04-27T05:26:48.051Z,2.70
2018-04-27T05:27:21.321Z,2.67
2018-04-27T05:27:55.353Z,2.53
2018-04-27T05:28:28.613Z,2.95
2018-04-27T05:29:01.892Z,2.25
2018-04-27T05:29:35.164Z,2.67
2018-04-27T05:30:08.425Z,2.70
2018-04-27T05:30:41.689Z,2.53
2018-04-27T05:31:23.647Z,2.62
2018-04-27T05:31:56.936Z,1.90
2018-04-27T05:32:30.220Z,2.72
2018-04-27T05:33:04.337Z,2.72
2018-04-27T05:33:37.603Z,2.25
2018-04-27T05:34:11.632Z,2.33
2018-04-27T05:34:44.892Z,2.40
2018-04-27T05:35:18.151Z,2.55
2018-04-27T05:35:52.173Z,2.60
2018-04-27T05:36:26.295Z,3.58
2018-04-27T05:36:59.599Z,2.70
2018-04-27T05:37:32.887Z,2.55
2018-04-27T05:38:06.148Z,2.80
2018-04-27T05:38:39.417Z,2.25
2018-04-27T05:39:12.663Z,2.72
2018-04-27T05:39:45.929Z,2.47
2018-04-27T05:40:19.961Z,2.60
2018-04-27T05:40:53.232Z,2.22
2018-04-27T05:41:26.499Z,2.80
2018-04-27T05:41:59.804Z,2.85
2018-04-27T05:42:33.102Z,2.70
2018-04-27T05:43:06.364Z,2.50
2018-04-27T05:43:39.631Z,2.40
2018-04-27T05:44:12.915Z,2.30
2018-04-27T05:44:46.192Z,2.20
2018-04-27T05:45:19.464Z,2.87
2018-04-27T05:45:52.728Z,2.45
2018-04-27T05:46:26.012Z,2.53
2018-04-27T05:47:00.054Z,3.00
2018-04-27T05:47:33.346Z,2.55
2018-04-27T05:48:06.613Z,2.55
2018-04-27T05:48:39.867Z,2.72
2018-04-27T05:49:13.143Z,2.70
2018-04-27T05:49:46.409Z,2.75
2018-04-27T05:50:19.688Z,2.30
2018-04-27T05:50:52.952Z,2.17
2018-04-27T05:51:26.229Z,2.25
2018-04-27T05:52:00.261Z,2.00
2018-04-27T05:52:33.536Z,2.12
2018-04-27T05:53:06.824Z,2.17
2018-04-27T05:53:40.079Z,2.30
2018-04-27T05:54:14.108Z,2.40
2018-04-27T05:54:47.376Z,2.47
2018-04-27T05:55:20.639Z,2.60
2018-04-27T05:55:53.956Z,2.10
2018-04-27T05:56:27.220Z,2.17
2018-04-27T05:57:00.582Z,2.28
2018-04-27T05:57:33.870Z,2.20
2018-04-27T05:58:07.904Z,1.77
2018-04-27T05:58:41.175Z,3.05
2018-04-27T05:59:14.424Z,2.28
2018-04-27T05:59:48.477Z,2.53
2018-04-27T06:00:21.723Z,2.50
2018-04-27T06:00:54.992Z,2.35
2018-04-27T06:01:29.020Z,2.58
2018-04-27T06:02:02.302Z,2.65
2018-04-27T06:02:35.576Z,2.30
2018-04-27T06:03:08.840Z,1.90
2018-04-27T06:03:53.860Z,2.10
2018-04-27T06:04:27.136Z,2.00
2018-04-27T06:05:00.409Z,2.30
2018-04-27T06:05:33.699Z,1.90
2018-04-27T06:06:06.964Z,2.92
2018-04-27T06:06:40.227Z,2.10
2018-04-27T06:07:13.485Z,2.40
2018-04-27T06:07:46.776Z,1.92
2018-04-27T06:08:20.053Z,2.10
2018-04-27T06:08:53.324Z,2.08
2018-04-27T06:09:26.600Z,2.22
2018-04-27T06:09:59.861Z,2.00
2018-04-27T06:10:33.132Z,2.20
2018-04-27T06:11:07.158Z,2.28
2018-04-27T06:11:40.431Z,2.05
2018-04-27T06:12:13.708Z,1.95
2018-04-27T06:12:47.013Z,2.12
2018-04-27T06:13:20.289Z,2.42
2018-04-27T06:13:53.564Z,2.10
2018-04-27T06:14:29.604Z,2.33
2018-04-27T06:15:02.889Z,3.05
2018-04-27T06:15:36.159Z,2.50
2018-04-27T06:16:09.489Z,2.05
2018-04-27T06:16:43.448Z,2.40
2018-04-27T06:17:16.718Z,2.50
2018-04-27T06:17:52.963Z,2.72
2018-04-27T06:18:26.205Z,2.53
2018-04-27T06:18:59.477Z,2.35
2018-04-27T06:19:32.759Z,2.25
2018-04-27T06:20:06.016Z,2.67
2018-04-27T06:20:39.284Z,2.28
2018-04-27T06:21:12.549Z,2.28
2018-04-27T06:21:45.824Z,2.05
2018-04-27T06:22:19.080Z,2.05
2018-04-27T06:22:53.128Z,2.25
2018-04-27T06:23:26.388Z,2.72
2018-04-27T06:23:59.674Z,2.28
2018-04-27T06:24:32.936Z,2.22
2018-04-27T06:25:06.204Z,2.33
2018-04-27T06:25:40.238Z,2.30
2018-04-27T06:26:14.267Z,2.53
2018-04-27T06:26:47.533Z,2.37
2018-04-27T06:27:20.808Z,2.17
2018-04-27T06:27:54.101Z,2.75
2018-04-27T06:28:27.401Z,2.60
2018-04-27T06:29:00.662Z,2.50
2018-04-27T06:29:33.930Z,2.35
2018-04-27T06:30:07.209Z,2.33
2018-04-27T06:30:40.470Z,2.30
2018-04-27T06:31:13.740Z,2.10
2018-04-27T06:31:47.080Z,2.40
2018-04-27T06:32:20.288Z,3.20
2018-04-27T06:32:54.323Z,2.40
2018-04-27T06:33:27.612Z,2.33
2018-04-27T06:34:00.967Z,2.65
2018-04-27T06:34:34.253Z,2.30
2018-04-27T06:35:07.515Z,2.67
2018-04-27T06:35:40.789Z,2.00
2018-04-27T06:36:14.078Z,2.87
2018-04-27T06:36:47.349Z,2.70
2018-04-27T06:37:20.628Z,3.00
2018-04-27T06:37:53.917Z,2.60
2018-04-27T06:38:27.811Z,2.80
2018-04-27T06:39:01.076Z,2.55
2018-04-27T06:39:35.100Z,2.10
2018-04-27T06:40:08.365Z,2.25
2018-04-27T06:40:41.629Z,2.00
2018-04-27T06:41:15.658Z,1.87
2018-04-27T06:41:48.924Z,2.70
2018-04-27T06:42:22.197Z,2.40
2018-04-27T06:42:56.238Z,2.45
2018-04-27T06:43:30.287Z,2.50
2018-04-27T06:44:04.312Z,2.45
2018-04-27T06:44:37.565Z,2.05
2018-04-27T06:45:11.604Z,2.40
2018-04-27T06:45:44.884Z,2.47
2018-04-27T06:46:18.157Z,3.03
2018-04-27T06:46:51.433Z,2.80
2018-04-27T06:47:24.702Z,2.25
2018-04-27T06:47:57.960Z,2.40
2018-04-27T06:48:32.004Z,2.47
2018-04-27T06:49:05.276Z,2.15
2018-04-27T06:49:38.544Z,2.45
2018-04-27T06:50:11.815Z,2.67
2018-04-27T06:50:45.096Z,3.05
2018-04-27T06:51:18.348Z,2.58
2018-04-27T06:51:52.393Z,2.42
2018-04-27T06:52:25.651Z,2.70
2018-04-27T06:52:58.936Z,2.08
2018-04-27T06:53:32.425Z,2.20
2018-04-27T06:54:06.445Z,2.33
2018-04-27T06:54:39.727Z,2.17
2018-04-27T06:55:13.002Z,2.90
2018-04-27T06:55:46.281Z,2.53
2018-04-27T06:56:19.544Z,1.77
2018-04-27T06:56:52.814Z,2.85
2018-04-27T06:57:26.105Z,2.20
2018-04-27T06:57:59.375Z,2.53
2018-04-27T06:58:32.652Z,2.37
2018-04-27T06:59:06.844Z,2.47
2018-04-27T06:59:40.129Z,2.30
2018-04-27T07:00:13.436Z,2.37
2018-04-27T07:00:46.709Z,2.83
2018-04-27T07:01:19.992Z,2.95
2018-04-27T07:01:53.264Z,2.28
2018-04-27T07:02:26.536Z,2.62
2018-04-27T07:02:59.809Z,2.62
2018-04-27T07:03:33.099Z,2.60
2018-04-27T07:04:06.365Z,2.70
2018-04-27T07:04:39.664Z,2.47
2018-04-27T07:05:12.952Z,2.33
2018-04-27T07:05:46.236Z,2.80
2018-04-27T07:06:19.523Z,2.47
2018-04-27T07:06:52.805Z,2.65
2018-04-27T07:07:26.065Z,2.35
2018-04-27T07:07:59.344Z,2.83
2018-04-27T07:08:32.645Z,2.03
2018-04-27T07:09:05.920Z,2.65
2018-04-27T07:09:39.200Z,2.70
2018-04-27T07:10:12.466Z,2.47
2018-04-27T07:10:45.738Z,2.62
2018-04-27T07:11:18.993Z,2.60
2018-04-27T07:11:53.038Z,3.05
2018-04-27T07:12:26.296Z,2.62
2018-04-27T07:12:59.563Z,2.80
2018-04-27T07:13:33.617Z,2.62
2018-04-27T07:14:06.907Z,2.95
2018-04-27T07:14:40.191Z,2.78
2018-04-27T07:15:13.441Z,3.33
2018-04-27T07:15:46.714Z,3.30
2018-04-27T07:16:19.980Z,2.87
2018-04-27T07:16:53.336Z,2.83
2018-04-27T07:17:26.513Z,2.90
2018-04-27T07:17:59.787Z,2.78
2018-04-27T07:18:33.841Z,2.40
2018-04-27T07:19:07.105Z,2.97
2018-04-27T07:19:40.378Z,2.90
2018-04-27T07:20:13.631Z,3.17
2018-04-27T07:20:46.913Z,3.12
2018-04-27T07:21:20.949Z,2.90
2018-04-27T07:21:54.262Z,2.83
2018-04-27T07:22:27.520Z,3.30
2018-04-27T07:23:00.794Z,3.40
2018-04-27T07:23:34.095Z,2.95
2018-04-27T07:24:07.373Z,3.20
2018-04-27T07:24:40.639Z,2.87
2018-04-27T07:25:13.900Z,2.58
2018-04-27T07:25:47.192Z,2.72
2018-04-27T07:26:20.448Z,2.85
2018-04-27T07:26:53.719Z,3.00
2018-04-27T07:27:27.754Z,2.80
2018-04-27T07:28:01.014Z,3.17